Weather at Metropolitan Oakland International Airport

Public forecast

Using degrees Fahrenheit for public forecast. Weather courtesy of forecast.io.

Current aviation weather report (METAR) for Metropolitan Oakland International Airport

Retrieved 2022/08/10 16:53 UTC (25 minutes ago):

KOAK 101653Z 27004KT 10SM SCT016 BKN021 19/15 A3010 RMK AO2 SLP191 T01940150

Aviation forecast (TAF) for Metropolitan Oakland International Airport

Retrieved 2022/08/10 12:22 UTC (5 hours ago):

TAF KOAK 101120Z 1012/1118 26010KT P6SM FEW008 BKN012 FM101700 26005KT P6SM FEW012 SCT016 FM102000 27015KT P6SM SKC FM110500 27010KT P6SM FEW008 SCT012 FM110700 26006KT P6SM FEW008 BKN011 FM111700 28008KT P6SM FEW013